KMIW/MIW METAR and TAF weather

Enter ICAO airport designator
Station Type Date Time Source
KMIW METAR 2020/01/24 21:09 UTC NOAA

KMIW 242109Z AUTO 34014KT 3SM -SN BR BKN010 OVC032 M01/M01 A2989 RMK AO2 P0000 T10061011


Station Type Date Time Source
KMIW Decoded METAR 2020/01/24 21:09 UTC NOAA

MARSHALLTOWN MUNICIPAL AIRPORT , IA, United States (KMIW) 42-07N 92-55W 296M
Jan 24, 2020 - 04:09 PM EST / 2020.01.24 2109 UTC
Wind: from the NNW (340 degrees) at 16 MPH (14 KT):0
Visibility: 3 mile(s):0
Sky conditions: overcast
Weather: light snow; mist
Precipitation last hour: A trace
Temperature: 30.9 F (-0.6 C)
Windchill: 19 F (-7 C):1
Dew Point: 30.0 F (-1.1 C)
Relative Humidity: 96%
Pressure (altimeter): 29.89 in. Hg (1012 hPa)
ob: KMIW 242109Z AUTO 34014KT 3SM -SN BR BKN010 OVC032 M01/M01 A2989 RMK AO2 P0000 T10061011
cycle: 21

Station Type Date Time Source
KMIW TAF UTC NOAA

Error!

Example: see airport list